createdAt,value
2019-02-02T00:00:41.628Z,28.13
2019-02-02T00:03:11.417Z,25.70
2019-02-02T00:05:40.188Z,29.77
2019-02-02T00:08:09.764Z,26.80
2019-02-02T00:10:38.435Z,28.20
2019-02-02T00:13:07.215Z,22.70
2019-02-02T00:15:35.914Z,27.70
2019-02-02T00:18:05.764Z,27.87
2019-02-02T00:20:34.429Z,31.87
2019-02-02T00:23:03.098Z,29.90
2019-02-02T00:25:31.769Z,28.77
2019-02-02T00:28:00.445Z,29.03
2019-02-02T00:30:29.114Z,29.43
2019-02-02T00:32:57.796Z,32.10
2019-02-02T00:35:26.466Z,25.00
2019-02-02T00:37:55.139Z,20.77
2019-02-02T00:40:25.511Z,23.30
2019-02-02T00:42:54.183Z,25.33
2019-02-02T00:45:23.854Z,22.40
2019-02-02T00:47:52.633Z,23.43
2019-02-02T00:50:21.414Z,19.63
2019-02-02T00:52:50.136Z,17.47
2019-02-02T00:55:19.714Z,22.13
2019-02-02T00:57:53.442Z,19.77
2019-02-02T01:00:29.060Z,19.80
2019-02-02T01:02:57.832Z,18.53
2019-02-02T01:05:26.498Z,20.83
2019-02-02T01:07:55.666Z,22.33
2019-02-02T01:10:32.912Z,18.33
2019-02-02T01:13:02.976Z,22.33
2019-02-02T01:15:31.748Z,16.67
2019-02-02T01:18:00.445Z,20.33
2019-02-02T01:20:30.059Z,17.20
2019-02-02T01:22:58.842Z,16.93
2019-02-02T01:25:27.504Z,23.47
2019-02-02T01:28:04.908Z,23.70
2019-02-02T01:30:26.939Z,19.80
2019-02-02T01:32:55.675Z,23.97
2019-02-02T01:35:24.317Z,20.37
2019-02-02T01:37:53.136Z,21.33
2019-02-02T01:40:24.528Z,23.37
2019-02-02T01:42:53.330Z,23.00
2019-02-02T01:45:24.248Z,21.73
2019-02-02T01:47:53.314Z,22.67
2019-02-02T01:50:24.378Z,21.67
2019-02-02T01:52:53.156Z,21.13
2019-02-02T01:55:21.980Z,25.13
2019-02-02T01:57:50.708Z,16.77
2019-02-02T02:00:31.299Z,17.23
2019-02-02T02:03:00.072Z,16.77
2019-02-02T02:05:28.832Z,17.37
2019-02-02T02:07:57.501Z,13.90
2019-02-02T02:10:26.673Z,18.87
2019-02-02T02:12:55.642Z,17.53
2019-02-02T02:15:24.306Z,20.30
2019-02-02T02:17:52.985Z,17.47
2019-02-02T02:20:24.278Z,23.63
2019-02-02T02:22:52.241Z,20.17
2019-02-02T02:25:21.717Z,18.17
2019-02-02T02:27:50.678Z,16.27
2019-02-02T02:30:23.815Z,18.50
2019-02-02T02:32:53.281Z,17.47
2019-02-02T02:35:22.055Z,18.03
2019-02-02T02:37:50.730Z,23.73
2019-02-02T02:40:21.501Z,18.20
2019-02-02T02:42:50.487Z,17.60
2019-02-02T02:45:19.361Z,18.60
2019-02-02T02:47:48.231Z,17.40
2019-02-02T02:50:23.463Z,18.20
2019-02-02T02:52:52.170Z,18.73
2019-02-02T02:55:21.038Z,13.93
2019-02-02T02:57:49.797Z,13.33
2019-02-02T03:00:21.104Z,12.03
2019-02-02T03:02:49.865Z,13.47
2019-02-02T03:05:20.329Z,14.57
2019-02-02T03:07:50.247Z,14.57
2019-02-02T03:10:21.106Z,12.67
2019-02-02T03:12:50.197Z,10.47
2019-02-02T03:15:19.655Z,8.70
2019-02-02T03:17:49.730Z,10.83
2019-02-02T03:20:18.592Z,12.87
2019-02-02T03:22:47.266Z,13.07
2019-02-02T03:25:21.307Z,12.00
2019-02-02T03:27:50.025Z,13.73
2019-02-02T03:30:22.620Z,15.63
2019-02-02T03:32:51.322Z,15.97
2019-02-02T03:35:24.552Z,14.60
2019-02-02T03:37:54.211Z,15.63
2019-02-02T03:40:24.359Z,12.33
2019-02-02T03:42:53.155Z,14.43
2019-02-02T03:45:24.004Z,15.13
2019-02-02T03:47:53.640Z,13.10
2019-02-02T03:50:22.424Z,17.57
2019-02-02T03:52:51.103Z,15.10
2019-02-02T03:55:19.764Z,15.37
2019-02-02T03:57:48.559Z,18.30
2019-02-02T04:00:21.888Z,16.33
2019-02-02T04:02:50.560Z,18.30
2019-02-02T04:05:24.558Z,17.23
2019-02-02T04:07:53.329Z,20.07
2019-02-02T04:10:22.003Z,18.90
2019-02-02T04:12:50.724Z,22.60
2019-02-02T04:15:20.291Z,22.03
2019-02-02T04:17:49.046Z,19.53
2019-02-02T04:20:22.444Z,22.10
2019-02-02T04:22:51.333Z,18.70
2019-02-02T04:25:21.409Z,19.80
2019-02-02T04:27:50.082Z,22.47
2019-02-02T04:30:20.961Z,21.37
2019-02-02T04:32:49.729Z,21.63
2019-02-02T04:35:18.902Z,20.77
2019-02-02T04:37:47.578Z,22.03
2019-02-02T04:40:16.947Z,23.40
2019-02-02T04:42:45.764Z,23.07
2019-02-02T04:45:16.501Z,20.83
2019-02-02T04:47:45.264Z,22.33
2019-02-02T04:50:16.675Z,20.50
2019-02-02T04:52:45.365Z,17.47
2019-02-02T04:55:16.146Z,20.27
2019-02-02T04:57:44.797Z,19.30
2019-02-02T05:00:16.712Z,21.73
2019-02-02T05:02:45.380Z,22.50
2019-02-02T05:05:16.385Z,21.60
2019-02-02T05:07:45.084Z,26.33
2019-02-02T05:10:18.981Z,22.37
2019-02-02T05:12:47.855Z,22.13
2019-02-02T05:15:16.538Z,22.17
2019-02-02T05:17:45.220Z,21.60
2019-02-02T05:20:16.602Z,22.27
2019-02-02T05:22:45.421Z,23.73
2019-02-02T05:25:14.280Z,22.20
2019-02-02T05:27:42.943Z,21.57
2019-02-02T05:30:17.830Z,22.13
2019-02-02T05:32:46.512Z,18.27
2019-02-02T05:35:15.175Z,19.90
2019-02-02T05:37:43.912Z,20.43
2019-02-02T05:40:21.170Z,22.60
2019-02-02T05:42:49.867Z,21.90
2019-02-02T05:45:21.758Z,20.80
2019-02-02T05:47:50.446Z,19.30
2019-02-02T05:50:21.312Z,20.00
2019-02-02T05:52:49.983Z,21.63
2019-02-02T05:55:20.359Z,26.27
2019-02-02T05:57:49.044Z,21.50
2019-02-02T06:00:39.895Z,25.43
2019-02-02T06:03:08.569Z,24.83
2019-02-02T06:05:37.239Z,25.27
2019-02-02T06:08:05.913Z,27.67
2019-02-02T06:10:34.613Z,23.20
2019-02-02T06:13:03.298Z,24.43
2019-02-02T06:15:31.997Z,23.80
2019-02-02T06:18:00.673Z,24.17
2019-02-02T06:20:29.409Z,22.37
2019-02-02T06:22:58.075Z,23.03
2019-02-02T06:25:26.809Z,22.37
2019-02-02T06:27:55.551Z,21.03
2019-02-02T06:30:25.840Z,28.67
2019-02-02T06:32:54.482Z,24.53
2019-02-02T06:35:23.151Z,21.80
2019-02-02T06:37:51.916Z,23.90
2019-02-02T06:40:20.576Z,23.77
2019-02-02T06:42:49.242Z,22.43
2019-02-02T06:45:21.200Z,19.90
2019-02-02T06:47:49.859Z,20.77
2019-02-02T06:50:18.790Z,21.87
2019-02-02T06:52:47.731Z,19.83
2019-02-02T06:55:18.340Z,18.90
2019-02-02T06:57:47.015Z,21.67
2019-02-02T07:00:27.368Z,20.67
2019-02-02T07:02:56.671Z,23.20
2019-02-02T07:05:25.418Z,26.47
2019-02-02T07:07:54.280Z,24.47
2019-02-02T07:10:25.435Z,24.33
2019-02-02T07:12:54.175Z,26.67
2019-02-02T07:15:25.503Z,24.33
2019-02-02T07:17:54.266Z,25.97
2019-02-02T07:20:22.924Z,27.60
2019-02-02T07:22:51.632Z,26.37
2019-02-02T07:25:20.297Z,26.70
2019-02-02T07:27:48.968Z,27.50
2019-02-02T07:30:29.486Z,30.03
2019-02-02T07:32:55.215Z,29.00
2019-02-02T07:35:24.292Z,28.77
2019-02-02T07:37:52.970Z,28.23
2019-02-02T07:40:22.539Z,25.50
2019-02-02T07:42:51.204Z,18.70
2019-02-02T07:45:25.399Z,17.83
2019-02-02T07:47:54.076Z,18.87
2019-02-02T07:50:22.743Z,17.70
2019-02-02T07:52:51.417Z,16.50
2019-02-02T07:55:21.496Z,17.03
2019-02-02T07:57:50.185Z,22.87
2019-02-02T08:00:39.617Z,13.47
2019-02-02T08:02:58.246Z,14.13
2019-02-02T08:05:26.919Z,13.33
2019-02-02T08:07:55.593Z,12.93
2019-02-02T08:10:24.355Z,16.10
2019-02-02T08:12:53.122Z,13.03
2019-02-02T08:15:24.460Z,18.27
2019-02-02T08:17:53.232Z,12.50
2019-02-02T08:20:21.887Z,13.97
2019-02-02T08:22:50.565Z,16.13
2019-02-02T08:25:19.348Z,11.87
2019-02-02T08:27:48.123Z,15.60
2019-02-02T08:30:18.622Z,21.03
2019-02-02T08:32:47.370Z,13.73
2019-02-02T08:35:16.121Z,15.23
2019-02-02T08:37:44.997Z,18.37
2019-02-02T08:40:18.815Z,17.13
2019-02-02T08:42:47.722Z,17.73
2019-02-02T08:45:17.090Z,23.10
2019-02-02T08:47:45.875Z,18.47
2019-02-02T08:50:26.569Z,21.20
2019-02-02T08:52:55.251Z,16.43
2019-02-02T08:55:24.179Z,17.73
2019-02-02T08:57:52.899Z,19.37
2019-02-02T09:00:22.132Z,16.80
2019-02-02T09:02:50.821Z,23.30
2019-02-02T09:05:22.117Z,23.27
2019-02-02T09:07:50.842Z,21.17
2019-02-02T09:10:28.048Z,19.93
2019-02-02T09:12:57.526Z,19.37
2019-02-02T09:15:26.593Z,24.30
2019-02-02T09:17:55.273Z,24.67
2019-02-02T09:20:24.615Z,23.13
2019-02-02T09:23:03.935Z,22.87
2019-02-02T09:25:23.680Z,27.03
2019-02-02T09:27:52.380Z,24.87
2019-02-02T09:30:26.381Z,26.20
2019-02-02T09:32:55.151Z,28.53
2019-02-02T09:35:23.845Z,24.43
2019-02-02T09:37:52.531Z,24.83
2019-02-02T09:40:21.305Z,26.53
2019-02-02T09:42:49.979Z,25.80
2019-02-02T09:45:23.722Z,28.33
2019-02-02T09:47:52.494Z,26.80
2019-02-02T09:50:26.300Z,29.17
2019-02-02T09:52:55.135Z,31.13
2019-02-02T09:55:25.493Z,30.10
2019-02-02T09:58:00.192Z,28.03
2019-02-02T10:00:30.893Z,30.13
2019-02-02T10:02:59.573Z,28.40
2019-02-02T10:05:28.909Z,25.33
2019-02-02T10:07:57.595Z,31.07
2019-02-02T10:10:28.758Z,28.93
2019-02-02T10:12:57.533Z,32.30
2019-02-02T10:15:27.421Z,30.47
2019-02-02T10:17:56.191Z,32.43
2019-02-02T10:20:30.071Z,28.10
2019-02-02T10:23:00.490Z,29.00
2019-02-02T10:25:30.957Z,28.67
2019-02-02T10:27:59.741Z,24.67
2019-02-02T10:30:33.456Z,29.57
2019-02-02T10:33:02.134Z,26.97
2019-02-02T10:35:30.807Z,29.40
2019-02-02T10:37:59.479Z,26.90
2019-02-02T10:40:30.163Z,34.67
2019-02-02T10:42:58.583Z,35.03
2019-02-02T10:45:27.270Z,32.27
2019-02-02T10:47:56.039Z,37.20
2019-02-02T10:50:26.771Z,34.33
2019-02-02T10:52:55.505Z,39.93
2019-02-02T10:55:24.262Z,36.60
2019-02-02T10:57:53.092Z,33.83
2019-02-02T11:00:24.696Z,31.30
2019-02-02T11:02:53.380Z,43.93
2019-02-02T11:05:22.125Z,38.10
2019-02-02T11:07:51.300Z,42.13
2019-02-02T11:10:29.149Z,42.27
2019-02-02T11:12:57.928Z,38.97
2019-02-02T11:15:26.942Z,41.70
2019-02-02T11:17:55.740Z,36.20
2019-02-02T11:20:32.987Z,38.90
2019-02-02T11:23:01.885Z,37.03
2019-02-02T11:25:30.687Z,43.67
2019-02-02T11:27:59.390Z,41.50
2019-02-02T11:30:28.970Z,36.07
2019-02-02T11:32:57.787Z,37.40
2019-02-02T11:35:26.473Z,37.73
2019-02-02T11:37:55.194Z,37.10
2019-02-02T11:40:29.143Z,36.00
2019-02-02T11:42:58.225Z,38.20
2019-02-02T11:45:26.905Z,35.17
2019-02-02T11:47:55.610Z,29.50
2019-02-02T11:50:24.887Z,35.27
2019-02-02T11:52:53.702Z,31.17
2019-02-02T11:55:24.558Z,32.57
2019-02-02T11:57:53.180Z,28.57
2019-02-02T12:00:30.646Z,34.50
2019-02-02T12:02:59.319Z,31.77
2019-02-02T12:05:28.331Z,35.17
2019-02-02T12:07:57.226Z,30.67
2019-02-02T12:10:28.776Z,30.97
2019-02-02T12:12:57.544Z,31.97
2019-02-02T12:15:26.329Z,37.97
2019-02-02T12:17:55.148Z,30.37
2019-02-02T12:20:25.023Z,33.47
2019-02-02T12:22:53.728Z,34.13
2019-02-02T12:25:22.700Z,32.70
2019-02-02T12:27:51.464Z,34.27
2019-02-02T12:30:31.947Z,32.60
2019-02-02T12:33:03.073Z,28.77
2019-02-02T12:35:31.463Z,33.33
2019-02-02T12:38:00.247Z,34.63
2019-02-02T12:40:29.456Z,34.63
2019-02-02T12:42:58.159Z,30.63
2019-02-02T12:45:36.198Z,33.17
2019-02-02T12:48:05.772Z,36.20
2019-02-02T12:50:34.581Z,41.43
2019-02-02T12:53:03.343Z,29.40
2019-02-02T12:55:32.029Z,37.90
2019-02-02T12:58:00.721Z,27.50
2019-02-02T13:00:29.404Z,23.90
2019-02-02T13:02:58.091Z,24.63
2019-02-02T13:05:26.888Z,22.57
2019-02-02T13:07:55.694Z,22.23
2019-02-02T13:10:27.189Z,22.73
2019-02-02T13:12:55.962Z,23.70
2019-02-02T13:15:24.633Z,23.70
2019-02-02T13:17:53.301Z,21.97
2019-02-02T13:20:21.977Z,21.37
2019-02-02T13:22:50.771Z,25.93
2019-02-02T13:25:24.452Z,25.83
2019-02-02T13:27:53.452Z,27.13
2019-02-02T13:30:27.775Z,29.87
2019-02-02T13:32:56.451Z,28.43
2019-02-02T13:35:25.923Z,25.63
2019-02-02T13:37:54.638Z,26.23
2019-02-02T13:40:24.810Z,28.10
2019-02-02T13:42:53.487Z,33.73
2019-02-02T13:45:23.436Z,29.50
2019-02-02T13:47:52.326Z,28.30
2019-02-02T13:50:20.995Z,26.20
2019-02-02T13:52:51.950Z,29.07
2019-02-02T13:55:20.724Z,37.50
2019-02-02T13:57:49.401Z,20.87
2019-02-02T14:00:20.576Z,22.80
2019-02-02T14:03:01.536Z,25.90
2019-02-02T14:05:19.952Z,24.83
2019-02-02T14:07:48.640Z,21.03
2019-02-02T14:10:19.415Z,21.47
2019-02-02T14:12:48.308Z,21.50
2019-02-02T14:15:17.406Z,23.90
2019-02-02T14:17:46.094Z,23.10
2019-02-02T14:20:15.872Z,21.47
2019-02-02T14:22:44.755Z,23.10
2019-02-02T14:25:15.739Z,23.27
2019-02-02T14:27:44.419Z,28.27
2019-02-02T14:30:18.584Z,36.10
2019-02-02T14:32:47.550Z,28.07
2019-02-02T14:35:24.275Z,29.47
2019-02-02T14:37:52.938Z,33.40
2019-02-02T14:40:22.109Z,33.10
2019-02-02T14:42:50.791Z,27.17
2019-02-02T14:45:27.325Z,27.97
2019-02-02T14:47:55.797Z,29.23
2019-02-02T14:50:25.079Z,30.57
2019-02-02T14:52:54.549Z,28.47
2019-02-02T14:55:25.748Z,27.13
2019-02-02T14:57:54.616Z,32.10
2019-02-02T15:00:25.913Z,28.37
2019-02-02T15:02:54.599Z,31.30
2019-02-02T15:05:23.270Z,31.50
2019-02-02T15:07:52.263Z,32.03
2019-02-02T15:10:22.140Z,29.93
2019-02-02T15:12:51.015Z,33.17
2019-02-02T15:15:19.912Z,38.37
2019-02-02T15:17:48.643Z,38.50
2019-02-02T15:20:29.268Z,39.73
2019-02-02T15:22:58.115Z,36.53
2019-02-02T15:25:26.834Z,38.90
2019-02-02T15:27:55.521Z,49.43
2019-02-02T15:30:32.356Z,33.60
2019-02-02T15:33:01.049Z,34.50
2019-02-02T15:35:29.727Z,39.80
2019-02-02T15:37:58.530Z,44.83
2019-02-02T15:40:27.182Z,38.73
2019-02-02T15:42:55.981Z,38.53
2019-02-02T15:45:29.582Z,42.60
2019-02-02T15:47:58.451Z,48.50
2019-02-02T15:50:27.245Z,46.23
2019-02-02T15:52:55.872Z,74.57
2019-02-02T15:55:25.549Z,82.30
2019-02-02T15:57:54.215Z,62.03
2019-02-02T16:00:28.229Z,75.03
2019-02-02T16:02:56.883Z,78.70
2019-02-02T16:05:26.554Z,75.10
2019-02-02T16:07:56.562Z,50.50
2019-02-02T16:10:30.191Z,71.13
2019-02-02T16:12:58.889Z,67.77
2019-02-02T16:15:29.011Z,55.73
2019-02-02T16:17:57.692Z,59.63
2019-02-02T16:20:29.136Z,57.93
2019-02-02T16:22:57.810Z,59.13
2019-02-02T16:25:26.579Z,37.13
2019-02-02T16:27:55.271Z,38.80
2019-02-02T16:30:26.075Z,39.77
2019-02-02T16:32:54.749Z,48.47
2019-02-02T16:35:23.615Z,37.70
2019-02-02T16:37:52.718Z,45.73
2019-02-02T16:40:26.450Z,43.23
2019-02-02T16:42:55.132Z,51.93
2019-02-02T16:45:25.721Z,51.43
2019-02-02T16:47:54.374Z,53.97
2019-02-02T16:50:23.427Z,51.43
2019-02-02T16:52:52.108Z,52.73
2019-02-02T16:55:20.782Z,61.80
2019-02-02T16:57:49.451Z,60.77
2019-02-02T17:00:23.384Z,64.10
2019-02-02T17:02:52.167Z,52.63
2019-02-02T17:05:21.039Z,59.93
2019-02-02T17:07:49.724Z,56.53
2019-02-02T17:10:23.469Z,58.00
2019-02-02T17:12:52.199Z,54.83
2019-02-02T17:15:20.984Z,56.60
2019-02-02T17:17:49.646Z,55.43
2019-02-02T17:20:26.857Z,52.43
2019-02-02T17:22:55.519Z,52.20
2019-02-02T17:25:24.189Z,54.23
2019-02-02T17:27:52.855Z,55.57
2019-02-02T17:30:24.024Z,61.10
2019-02-02T17:32:54.897Z,78.43
2019-02-02T17:35:23.575Z,70.43
2019-02-02T17:37:52.237Z,51.50
2019-02-02T17:40:28.574Z,48.40
2019-02-02T17:42:57.345Z,54.40
2019-02-02T17:45:26.128Z,61.53
2019-02-02T17:47:54.790Z,48.03
2019-02-02T17:50:25.504Z,72.27
2019-02-02T17:52:54.469Z,59.07
2019-02-02T17:55:23.133Z,51.27
2019-02-02T17:57:51.912Z,49.20
2019-02-02T18:00:30.928Z,53.97
2019-02-02T18:02:59.576Z,54.93
2019-02-02T18:05:28.354Z,57.17
2019-02-02T18:07:57.014Z,61.47
2019-02-02T18:10:25.730Z,59.27
2019-02-02T18:12:54.423Z,62.67
2019-02-02T18:15:23.089Z,81.13
2019-02-02T18:17:51.765Z,87.90
2019-02-02T18:20:20.583Z,85.37
2019-02-02T18:22:49.244Z,93.33
2019-02-02T18:25:18.314Z,82.83
2019-02-02T18:27:46.982Z,83.40
2019-02-02T18:30:27.051Z,63.87
2019-02-02T18:32:56.496Z,60.47
2019-02-02T18:35:25.481Z,61.53
2019-02-02T18:37:54.163Z,59.03
2019-02-02T18:40:26.585Z,52.13
2019-02-02T18:42:55.746Z,57.83
2019-02-02T18:45:29.069Z,54.77
2019-02-02T18:47:58.460Z,52.30
2019-02-02T18:50:27.106Z,32.27
2019-02-02T18:52:57.803Z,46.60
2019-02-02T18:55:29.540Z,46.63
2019-02-02T18:57:58.211Z,37.80
2019-02-02T19:00:26.889Z,36.90
2019-02-02T19:02:58.714Z,38.67
2019-02-02T19:05:29.228Z,41.67
2019-02-02T19:07:58.048Z,38.03
2019-02-02T19:10:29.686Z,43.17
2019-02-02T19:12:58.479Z,41.13
2019-02-02T19:15:27.253Z,53.47
2019-02-02T19:17:55.939Z,45.80
2019-02-02T19:20:25.102Z,47.23
2019-02-02T19:22:56.851Z,47.00
2019-02-02T19:25:24.179Z,49.33
2019-02-02T19:27:52.886Z,44.57
2019-02-02T19:30:29.926Z,32.67
2019-02-02T19:32:58.590Z,34.63
2019-02-02T19:35:27.561Z,32.17
2019-02-02T19:37:56.254Z,28.07
2019-02-02T19:40:24.956Z,31.20
2019-02-02T19:42:53.665Z,22.13
2019-02-02T19:45:24.840Z,28.07
2019-02-02T19:47:53.626Z,27.77
2019-02-02T19:50:25.086Z,32.73
2019-02-02T19:52:53.979Z,31.37
2019-02-02T19:55:22.636Z,30.00
2019-02-02T19:57:51.296Z,35.17
2019-02-02T20:00:28.509Z,37.83
2019-02-02T20:02:57.187Z,39.63
2019-02-02T20:05:29.002Z,38.40
2019-02-02T20:07:56.361Z,39.37
2019-02-02T20:10:25.047Z,41.60
2019-02-02T20:12:53.716Z,39.07
2019-02-02T20:15:24.691Z,40.47
2019-02-02T20:17:53.459Z,40.60
2019-02-02T20:20:24.629Z,45.90
2019-02-02T20:22:53.337Z,41.40
2019-02-02T20:25:22.123Z,49.80
2019-02-02T20:27:50.815Z,44.57
2019-02-02T20:30:22.111Z,44.70
2019-02-02T20:32:50.807Z,52.73
2019-02-02T20:35:19.491Z,44.70
2019-02-02T20:37:48.176Z,40.97
2019-02-02T20:40:19.146Z,36.33
2019-02-02T20:42:48.147Z,45.07
2019-02-02T20:45:19.105Z,43.90
2019-02-02T20:47:47.779Z,42.30
2019-02-02T20:50:20.413Z,42.67
2019-02-02T20:52:49.106Z,30.43
2019-02-02T20:55:23.399Z,40.17
2019-02-02T20:57:52.577Z,33.20
2019-02-02T21:00:23.945Z,31.43
2019-02-02T21:02:52.622Z,33.30
2019-02-02T21:05:21.604Z,27.33
2019-02-02T21:07:50.402Z,28.87
2019-02-02T21:10:21.423Z,28.33
2019-02-02T21:12:50.131Z,28.43
2019-02-02T21:15:18.795Z,27.30
2019-02-02T21:17:47.577Z,28.77
2019-02-02T21:20:27.031Z,25.97
2019-02-02T21:22:55.702Z,29.37
2019-02-02T21:25:24.482Z,26.67
2019-02-02T21:27:53.142Z,21.97
2019-02-02T21:30:27.100Z,23.07
2019-02-02T21:32:55.771Z,28.10
2019-02-02T21:35:25.458Z,23.73
2019-02-02T21:37:54.222Z,23.70
2019-02-02T21:40:33.893Z,24.40
2019-02-02T21:43:02.566Z,20.80
2019-02-02T21:45:31.234Z,23.73
2019-02-02T21:47:59.925Z,21.43
2019-02-02T21:50:28.709Z,21.23
2019-02-02T21:52:57.374Z,20.10
2019-02-02T21:55:27.951Z,18.83
2019-02-02T21:57:56.613Z,19.20
2019-02-02T22:00:31.370Z,17.83
2019-02-02T22:03:00.042Z,15.80
2019-02-02T22:05:28.725Z,18.33
2019-02-02T22:07:57.508Z,17.83
2019-02-02T22:10:26.183Z,20.20
2019-02-02T22:12:55.220Z,19.47
2019-02-02T22:15:25.887Z,19.47
2019-02-02T22:17:54.571Z,15.70
2019-02-02T22:20:23.229Z,15.77
2019-02-02T22:22:52.306Z,18.23
2019-02-02T22:25:26.389Z,14.00
2019-02-02T22:27:55.053Z,14.23
2019-02-02T22:30:34.594Z,16.20
2019-02-02T22:33:03.365Z,11.03
2019-02-02T22:35:32.039Z,11.63
2019-02-02T22:38:00.698Z,9.73
2019-02-02T22:40:29.733Z,9.10
2019-02-02T22:42:58.454Z,8.50
2019-02-02T22:45:27.242Z,10.23
2019-02-02T22:47:56.013Z,9.37
2019-02-02T22:50:28.069Z,9.97
2019-02-02T22:52:57.133Z,10.43
2019-02-02T22:55:26.090Z,8.67
2019-02-02T22:57:55.353Z,12.57
2019-02-02T23:00:31.379Z,11.40
2019-02-02T23:03:01.142Z,23.63
2019-02-02T23:05:38.338Z,28.00
2019-02-02T23:08:12.786Z,35.03
2019-02-02T23:11:02.533Z,27.83
2019-02-02T23:13:42.901Z,25.10
2019-02-02T23:16:28.036Z,21.40
2019-02-02T23:18:57.517Z,15.43
2019-02-02T23:21:26.881Z,19.00
2019-02-02T23:23:55.542Z,18.87
2019-02-02T23:26:24.648Z,15.73
2019-02-02T23:28:53.484Z,15.60
2019-02-02T23:31:22.625Z,14.53
2019-02-02T23:33:51.304Z,11.97
2019-02-02T23:36:19.967Z,13.77
2019-02-02T23:38:48.721Z,14.70
2019-02-02T23:41:17.414Z,19.00
2019-02-02T23:43:46.074Z,14.43
2019-02-02T23:46:15.128Z,13.17
2019-02-02T23:48:43.797Z,12.27
2019-02-02T23:51:12.501Z,14.17
2019-02-02T23:53:41.176Z,12.83
2019-02-02T23:56:09.879Z,12.63
2019-02-02T23:58:38.560Z,11.27
